Time;durP1;ratioP1;P1;durP2;ratioP2;P2;SDS_P1;SDS_P2;PMS_P1;PMS_P2;Temp;Humidity;BMP_temperature;BMP_pressure;BME280_temperature;BME280_humidity;BME280_pressure;Samples;Min_cycle;Max_cycle;Signal;HPM_P1;HPM_P2
2021/12/09 00:01:31;;;;;;;8.17;3.17;;;;;;;;;;5050928;28;20726;-85
2021/12/09 00:03:58;;;;;;;11.33;3.17;;;;;;;;;;5084303;28;20154;-84
2021/12/09 00:06:27;;;;;;;11.67;3.13;;;;;;;;;;5084161;28;20021;-85
2021/12/09 00:08:57;;;;;;;13.60;3.50;;;;;;;;;;5051070;28;20021;-84
2021/12/09 00:11:22;;;;;;;7.40;2.90;;;;;;;;;;5050908;28;20025;-84
2021/12/09 00:13:48;;;;;;;8.87;3.60;;;;;;;;;;5084416;28;20017;-84
2021/12/09 00:16:13;;;;;;;8.47;2.97;;;;;;;;;;5084215;28;20474;-84
2021/12/09 00:18:38;;;;;;;12.70;2.67;;;;;;;;;;5050711;28;20528;-84
2021/12/09 00:21:03;;;;;;;15.10;3.30;;;;;;;;;;5050918;28;20079;-84
2021/12/09 00:23:29;;;;;;;7.80;3.00;;;;;;;;;;5051279;28;20039;-84
2021/12/09 00:25:54;;;;;;;11.67;3.20;;;;;;;;;;5051045;28;20040;-84
2021/12/09 00:28:20;;;;;;;11.53;2.80;;;;;;;;;;5052061;28;20028;-84
2021/12/09 00:30:45;;;;;;;11.30;3.10;;;;;;;;;;5053001;28;20385;-84
2021/12/09 00:33:11;;;;;;;7.83;2.53;;;;;;;;;;5059408;28;20375;-84
2021/12/09 00:35:55;;;;;;;8.23;2.87;;;;;;;;;;5081408;28;20104;-84
2021/12/09 00:38:35;;;;;;;12.47;2.83;;;;;;;;;;5054963;28;20029;-84
2021/12/09 00:41:02;;;;;;;7.10;2.53;;;;;;;;;;5054364;28;20464;-84
2021/12/09 00:43:28;;;;;;;8.90;2.90;;;;;;;;;;5062499;28;20028;-84
2021/12/09 00:45:53;;;;;;;10.00;2.80;;;;;;;;;;5062878;28;20031;-84
2021/12/09 00:48:19;;;;;;;11.97;2.73;;;;;;;;;;5062342;28;20071;-84
2021/12/09 00:50:44;;;;;;;8.63;2.30;;;;;;;;;;5055798;28;20055;-84
2021/12/09 00:53:10;;;;;;;12.17;2.80;;;;;;;;;;5065830;28;20069;-85
2021/12/09 00:55:35;;;;;;;7.13;2.43;;;;;;;;;;5057069;28;20029;-85
2021/12/09 00:58:00;;;;;;;8.77;2.47;;;;;;;;;;5062244;28;20491;-84
2021/12/09 01:00:25;;;;;;;7.80;2.80;;;;;;;;;;5087901;28;20137;-85
2021/12/09 01:02:51;;;;;;;8.37;2.40;;;;;;;;;;5087450;28;20033;-85
2021/12/09 01:05:16;;;;;;;9.57;2.40;;;;;;;;;;5054159;28;20029;-84
2021/12/09 01:07:41;;;;;;;6.63;2.50;;;;;;;;;;5054426;28;20033;-83
2021/12/09 01:10:08;;;;;;;6.70;2.50;;;;;;;;;;5061635;28;20074;-84
2021/12/09 01:12:34;;;;;;;7.33;2.70;;;;;;;;;;5063044;28;20036;-84
2021/12/09 01:14:59;;;;;;;5.73;2.70;;;;;;;;;;5054122;28;20029;-84
2021/12/09 01:17:24;;;;;;;9.97;2.77;;;;;;;;;;5053826;28;20528;-84
2021/12/09 01:19:50;;;;;;;9.90;2.57;;;;;;;;;;5053645;28;20419;-84
2021/12/09 01:22:15;;;;;;;7.27;2.67;;;;;;;;;;5087960;28;20036;-84
2021/12/09 01:24:41;;;;;;;6.83;2.57;;;;;;;;;;5087046;28;20032;-85
2021/12/09 01:27:06;;;;;;;7.87;2.63;;;;;;;;;;5053788;28;20378;-85
2021/12/09 01:29:36;;;;;;;10.30;2.63;;;;;;;;;;5061560;28;20025;-84
2021/12/09 01:32:05;;;;;;;6.00;2.37;;;;;;;;;;5053455;28;20123;-85
2021/12/09 01:34:30;;;;;;;8.77;2.87;;;;;;;;;;5087210;28;20017;-85
2021/12/09 01:36:55;;;;;;;5.37;2.20;;;;;;;;;;5053629;28;20036;-85
2021/12/09 01:39:21;;;;;;;8.07;2.93;;;;;;;;;;5053691;28;20104;-85
2021/12/09 01:41:47;;;;;;;5.90;2.47;;;;;;;;;;5053852;28;20059;-85
2021/12/09 01:44:12;;;;;;;4.83;2.33;;;;;;;;;;5052635;28;20029;-85
2021/12/09 01:46:37;;;;;;;7.87;2.47;;;;;;;;;;5054540;28;20025;-85
2021/12/09 01:49:02;;;;;;;10.47;2.60;;;;;;;;;;5086172;28;20029;-84
2021/12/09 01:51:28;;;;;;;7.57;2.50;;;;;;;;;;5086677;28;20515;-84
2021/12/09 01:53:53;;;;;;;7.60;2.30;;;;;;;;;;5086249;28;20044;-85
2021/12/09 01:56:21;;;;;;;11.83;2.60;;;;;;;;;;5053406;28;20049;-84
2021/12/09 01:58:51;;;;;;;6.20;2.40;;;;;;;;;;5053494;28;20439;-85
2021/12/09 02:01:16;;;;;;;8.63;2.40;;;;;;;;;;5052926;28;20028;-84
2021/12/09 02:03:41;;;;;;;8.57;2.50;;;;;;;;;;5086075;28;20132;-84
2021/12/09 02:06:06;;;;;;;9.77;2.33;;;;;;;;;;5053118;28;20033;-84
2021/12/09 02:08:32;;;;;;;5.77;2.27;;;;;;;;;;5054407;28;20029;-84
2021/12/09 02:10:57;;;;;;;9.70;2.57;;;;;;;;;;5086058;28;20473;-85
2021/12/09 02:13:23;;;;;;;7.93;2.63;;;;;;;;;;5053038;28;20416;-85
2021/12/09 02:15:51;;;;;;;6.30;2.33;;;;;;;;;;5052831;28;20025;-84
2021/12/09 02:18:17;;;;;;;9.50;2.50;;;;;;;;;;5056418;28;20099;-84
2021/12/09 02:20:42;;;;;;;9.23;2.23;;;;;;;;;;5058722;28;20029;-84
2021/12/09 02:23:11;;;;;;;7.03;2.20;;;;;;;;;;5054854;28;20468;-85
2021/12/09 02:25:37;;;;;;;8.10;2.47;;;;;;;;;;5064001;28;20479;-85
2021/12/09 02:28:03;;;;;;;8.13;2.23;;;;;;;;;;5055641;28;20155;-84
2021/12/09 02:30:28;;;;;;;9.57;2.23;;;;;;;;;;5060495;28;20043;-84
2021/12/09 02:32:54;;;;;;;4.80;1.67;;;;;;;;;;5061787;28;20522;-84
2021/12/09 02:35:19;;;;;;;5.30;2.37;;;;;;;;;;5062239;28;20119;-84
2021/12/09 02:37:45;;;;;;;6.83;2.20;;;;;;;;;;5058590;28;20044;-84
2021/12/09 02:40:11;;;;;;;9.40;2.30;;;;;;;;;;5052153;28;20140;-84
2021/12/09 02:42:36;;;;;;;11.73;2.77;;;;;;;;;;5052780;28;20052;-84
2021/12/09 02:45:03;;;;;;;7.63;2.40;;;;;;;;;;5061634;28;20024;-83
2021/12/09 02:47:29;;;;;;;13.07;2.43;;;;;;;;;;5051868;28;20021;-84
2021/12/09 02:49:54;;;;;;;7.70;2.40;;;;;;;;;;5052393;28;20376;-84
2021/12/09 02:52:19;;;;;;;6.37;2.10;;;;;;;;;;5085162;28;20037;-84
2021/12/09 02:54:45;;;;;;;7.37;2.37;;;;;;;;;;5056654;28;20028;-84
2021/12/09 02:57:10;;;;;;;14.03;2.27;;;;;;;;;;5055451;28;20029;-84
2021/12/09 02:59:35;;;;;;;6.10;2.20;;;;;;;;;;5051801;28;20040;-83
2021/12/09 03:02:04;;;;;;;7.87;1.90;;;;;;;;;;5052177;28;20046;-84
2021/12/09 03:04:38;;;;;;;8.87;2.10;;;;;;;;;;5051846;28;20025;-84
2021/12/09 03:07:08;;;;;;;6.00;1.67;;;;;;;;;;5085673;28;20059;-84
2021/12/09 03:09:34;;;;;;;5.43;1.80;;;;;;;;;;5084667;28;20029;-83
2021/12/09 03:12:04;;;;;;;6.83;1.90;;;;;;;;;;5060060;28;20020;-84
2021/12/09 03:14:30;;;;;;;7.50;1.83;;;;;;;;;;5062204;28;20029;-83
2021/12/09 03:16:55;;;;;;;5.50;1.73;;;;;;;;;;5058357;28;20027;-84
2021/12/09 03:19:20;;;;;;;8.00;1.80;;;;;;;;;;5059739;28;20020;-83
2021/12/09 03:21:46;;;;;;;6.53;1.80;;;;;;;;;;5059424;28;20035;-83
2021/12/09 03:24:13;;;;;;;6.13;2.30;;;;;;;;;;5051923;28;20021;-84
2021/12/09 03:26:41;;;;;;;8.30;2.30;;;;;;;;;;5059365;28;20116;-84
2021/12/09 03:29:07;;;;;;;7.40;2.00;;;;;;;;;;5056953;28;20023;-83
2021/12/09 03:31:33;;;;;;;14.10;2.10;;;;;;;;;;5053450;28;20056;-84
2021/12/09 03:33:59;;;;;;;8.70;2.33;;;;;;;;;;5051732;28;20017;-84
2021/12/09 03:36:28;;;;;;;7.37;2.07;;;;;;;;;;5059570;28;20096;-84
2021/12/09 03:38:53;;;;;;;8.37;1.90;;;;;;;;;;5051320;28;20017;-84
2021/12/09 03:41:18;;;;;;;4.23;1.73;;;;;;;;;;5084537;28;21229;-83
2021/12/09 03:43:44;;;;;;;11.37;2.07;;;;;;;;;;5084486;28;20029;-84
2021/12/09 03:46:09;;;;;;;6.87;2.20;;;;;;;;;;5051333;28;20051;-84
2021/12/09 03:48:34;;;;;;;4.17;1.47;;;;;;;;;;5051147;28;20077;-83
2021/12/09 03:50:59;;;;;;;14.57;2.07;;;;;;;;;;5058444;28;20102;-84
2021/12/09 03:53:25;;;;;;;8.13;1.80;;;;;;;;;;5084552;28;20032;-84
2021/12/09 03:55:50;;;;;;;5.83;2.10;;;;;;;;;;5085470;28;20025;-84
2021/12/09 03:58:16;;;;;;;7.60;2.00;;;;;;;;;;5054485;28;20139;-84
2021/12/09 04:00:42;;;;;;;7.30;1.87;;;;;;;;;;5050912;28;20472;-84
2021/12/09 04:03:08;;;;;;;8.00;1.80;;;;;;;;;;5080323;28;20026;-84
2021/12/09 04:05:33;;;;;;;10.63;2.27;;;;;;;;;;5058748;28;20032;-83
2021/12/09 04:07:58;;;;;;;9.93;2.53;;;;;;;;;;5055391;28;20029;-83
2021/12/09 04:10:24;;;;;;;8.60;2.00;;;;;;;;;;5055516;28;20056;-84
2021/12/09 04:12:49;;;;;;;8.40;1.97;;;;;;;;;;5056285;28;20040;-84
2021/12/09 04:15:14;;;;;;;9.53;2.20;;;;;;;;;;5054997;28;20454;-84
2021/12/09 04:17:39;;;;;;;6.27;1.70;;;;;;;;;;5063293;28;20029;-84
2021/12/09 04:20:06;;;;;;;7.70;2.00;;;;;;;;;;5062619;28;20126;-84
2021/12/09 04:22:31;;;;;;;11.43;2.00;;;;;;;;;;5062711;28;20023;-84
2021/12/09 04:24:56;;;;;;;7.73;2.10;;;;;;;;;;5064369;28;20481;-84
2021/12/09 04:27:23;;;;;;;10.17;2.27;;;;;;;;;;5063327;28;20017;-84
2021/12/09 04:29:48;;;;;;;8.73;2.07;;;;;;;;;;5062489;28;20033;-84
2021/12/09 04:32:13;;;;;;;6.13;2.57;;;;;;;;;;5058097;28;20020;-84
2021/12/09 04:34:38;;;;;;;10.10;2.20;;;;;;;;;;5060969;28;20027;-84
2021/12/09 04:37:04;;;;;;;9.47;2.10;;;;;;;;;;5087803;28;20025;-84
2021/12/09 04:39:29;;;;;;;9.40;1.87;;;;;;;;;;5054552;28;20116;-84
2021/12/09 04:41:54;;;;;;;7.47;1.90;;;;;;;;;;5054460;28;20021;-84
2021/12/09 04:44:20;;;;;;;11.70;2.60;;;;;;;;;;5067146;28;20062;-84
2021/12/09 04:46:45;;;;;;;7.70;2.07;;;;;;;;;;5066087;28;20025;-84
2021/12/09 04:49:10;;;;;;;9.23;2.57;;;;;;;;;;5054994;28;20055;-83
2021/12/09 04:51:36;;;;;;;9.57;2.50;;;;;;;;;;5054247;28;20056;-84
2021/12/09 04:54:02;;;;;;;8.33;2.10;;;;;;;;;;5087397;28;20052;-84
2021/12/09 04:56:27;;;;;;;8.97;2.30;;;;;;;;;;5054818;28;20021;-84
2021/12/09 04:58:52;;;;;;;7.60;2.27;;;;;;;;;;5087363;28;20086;-83
2021/12/09 05:01:18;;;;;;;7.70;2.17;;;;;;;;;;5054176;28;20607;-84
2021/12/09 05:03:46;;;;;;;10.90;2.03;;;;;;;;;;5062047;28;20032;-83
2021/12/09 05:06:12;;;;;;;14.83;2.77;;;;;;;;;;5062077;28;20408;-83
2021/12/09 05:08:39;;;;;;;8.10;2.13;;;;;;;;;;5054289;28;20040;-84
2021/12/09 05:11:14;;;;;;;15.97;2.00;;;;;;;;;;5054046;28;20492;-84
2021/12/09 05:13:39;;;;;;;8.37;2.10;;;;;;;;;;5054166;28;20028;-84
2021/12/09 05:16:05;;;;;;;10.37;2.40;;;;;;;;;;5083051;28;20036;-84
2021/12/09 05:18:32;;;;;;;8.63;1.90;;;;;;;;;;5086610;28;20439;-84
2021/12/09 05:20:58;;;;;;;8.57;2.00;;;;;;;;;;5054419;28;20104;-84
2021/12/09 05:23:23;;;;;;;11.07;1.90;;;;;;;;;;5053730;28;20473;-84
2021/12/09 05:25:49;;;;;;;12.27;2.63;;;;;;;;;;5055071;28;20036;-84
2021/12/09 05:28:18;;;;;;;7.03;1.83;;;;;;;;;;5053358;28;20423;-84
2021/12/09 05:33:28;;;;;;;8.73;1.90;;;;;;;;;;5055108;28;20032;-84
2021/12/09 05:35:53;;;;;;;8.50;1.67;;;;;;;;;;5087057;28;20025;-84
2021/12/09 05:38:19;;;;;;;8.07;1.77;;;;;;;;;;5086710;28;20040;-85
2021/12/09 05:40:44;;;;;;;7.40;2.23;;;;;;;;;;5053922;28;20024;-84
2021/12/09 05:43:09;;;;;;;9.37;2.67;;;;;;;;;;5053853;28;20028;-84
2021/12/09 05:45:34;;;;;;;11.80;2.57;;;;;;;;;;5055939;28;20092;-84
2021/12/09 05:48:00;;;;;;;6.03;2.20;;;;;;;;;;5064647;28;20052;-84
2021/12/09 05:50:25;;;;;;;11.57;3.07;;;;;;;;;;5062860;28;20012;-84
2021/12/09 05:52:50;;;;;;;13.77;2.77;;;;;;;;;;5086891;28;20354;-84
2021/12/09 05:55:15;;;;;;;10.73;2.30;;;;;;;;;;5054689;28;20013;-84
2021/12/09 05:57:40;;;;;;;13.57;2.57;;;;;;;;;;5086920;28;20013;-84
2021/12/09 06:00:08;;;;;;;10.80;2.33;;;;;;;;;;5052935;28;20025;-84
2021/12/09 06:02:35;;;;;;;8.47;2.40;;;;;;;;;;5055565;28;20021;-84
2021/12/09 06:05:00;;;;;;;8.07;2.50;;;;;;;;;;5064640;28;20020;-83
2021/12/09 06:07:25;;;;;;;14.27;3.70;;;;;;;;;;5064283;28;20150;-84
2021/12/09 06:09:50;;;;;;;12.73;3.60;;;;;;;;;;5061051;28;20032;-84
2021/12/09 06:12:16;;;;;;;11.30;2.63;;;;;;;;;;5053039;28;20383;-84
2021/12/09 06:14:41;;;;;;;11.97;2.77;;;;;;;;;;5062038;28;20074;-84
2021/12/09 06:17:06;;;;;;;8.57;2.47;;;;;;;;;;5086366;28;20082;-84
2021/12/09 06:19:31;;;;;;;11.10;2.83;;;;;;;;;;5060199;28;20034;-84
2021/12/09 06:21:57;;;;;;;9.00;2.80;;;;;;;;;;5052527;28;20074;-84
2021/12/09 06:24:23;;;;;;;8.03;2.53;;;;;;;;;;5056982;28;20490;-84
2021/12/09 06:26:48;;;;;;;8.73;2.83;;;;;;;;;;5052738;28;20523;-83
2021/12/09 06:29:13;;;;;;;10.27;2.63;;;;;;;;;;5086119;28;20115;-84
2021/12/09 06:31:39;;;;;;;15.23;2.97;;;;;;;;;;5085217;28;20468;-83
2021/12/09 06:34:04;;;;;;;8.73;2.63;;;;;;;;;;5052521;28;20040;-84
2021/12/09 06:36:29;;;;;;;11.00;2.50;;;;;;;;;;5052546;28;20432;-84
2021/12/09 06:38:54;;;;;;;12.07;2.13;;;;;;;;;;5062910;28;20055;-84
2021/12/09 06:41:21;;;;;;;10.80;2.80;;;;;;;;;;5057649;28;20023;-84
2021/12/09 06:43:47;;;;;;;7.97;2.43;;;;;;;;;;5085533;28;20029;-84
2021/12/09 06:46:12;;;;;;;8.57;2.73;;;;;;;;;;5053800;28;20036;-84
2021/12/09 06:48:38;;;;;;;7.70;2.70;;;;;;;;;;5047916;28;20450;-84
2021/12/09 06:51:05;;;;;;;10.20;2.53;;;;;;;;;;5054351;28;20025;-84
2021/12/09 06:53:31;;;;;;;6.80;1.80;;;;;;;;;;5056358;28;20401;-83
2021/12/09 06:55:56;;;;;;;10.37;2.53;;;;;;;;;;5084524;28;20025;-83
2021/12/09 06:58:22;;;;;;;6.70;1.87;;;;;;;;;;5047524;28;20025;-84
2021/12/09 07:00:47;;;;;;;9.50;2.27;;;;;;;;;;5051991;28;20074;-83
2021/12/09 07:03:14;;;;;;;8.77;2.00;;;;;;;;;;5063620;28;20020;-83
2021/12/09 07:05:39;;;;;;;10.27;2.10;;;;;;;;;;5052807;28;20526;-83
2021/12/09 07:08:05;;;;;;;9.43;2.43;;;;;;;;;;5051190;28;20024;-83
2021/12/09 07:10:30;;;;;;;10.63;2.50;;;;;;;;;;5052036;28;20025;-83
2021/12/09 07:12:55;;;;;;;10.20;2.60;;;;;;;;;;5080171;28;20063;-83
2021/12/09 07:15:21;;;;;;;8.70;2.27;;;;;;;;;;5053872;28;20376;-83
2021/12/09 07:17:46;;;;;;;10.97;2.47;;;;;;;;;;5051560;28;20029;-83
2021/12/09 07:20:13;;;;;;;7.40;2.10;;;;;;;;;;5055507;28;20033;-83
2021/12/09 07:22:38;;;;;;;6.60;2.30;;;;;;;;;;5053343;28;20059;-83
2021/12/09 07:25:04;;;;;;;5.77;2.40;;;;;;;;;;5060768;28;20052;-84
2021/12/09 07:27:30;;;;;;;8.93;2.77;;;;;;;;;;5051593;28;20071;-83
2021/12/09 07:29:55;;;;;;;10.67;2.53;;;;;;;;;;5085301;28;20462;-84
2021/12/09 07:32:20;;;;;;;13.00;2.40;;;;;;;;;;5052282;28;20025;-83
2021/12/09 07:34:45;;;;;;;8.20;1.97;;;;;;;;;;5059992;28;20032;-84
2021/12/09 07:37:11;;;;;;;4.80;2.10;;;;;;;;;;5051480;28;20170;-83
2021/12/09 07:39:36;;;;;;;10.20;2.60;;;;;;;;;;5084596;28;20033;-83
2021/12/09 07:42:01;;;;;;;6.70;2.00;;;;;;;;;;5084098;28;20029;-83
2021/12/09 07:44:27;;;;;;;7.73;2.27;;;;;;;;;;5062987;28;20419;-83
2021/12/09 07:46:54;;;;;;;8.37;2.57;;;;;;;;;;5056048;28;20036;-84
2021/12/09 07:49:19;;;;;;;11.67;3.00;;;;;;;;;;5086599;28;20461;-83
2021/12/09 07:51:45;;;;;;;6.97;1.93;;;;;;;;;;5063046;28;20035;-83
2021/12/09 07:54:10;;;;;;;8.63;2.20;;;;;;;;;;5062194;28;20032;-83
2021/12/09 07:56:35;;;;;;;8.33;2.50;;;;;;;;;;5060827;28;20457;-84
2021/12/09 07:59:00;;;;;;;7.13;2.37;;;;;;;;;;5052897;28;20391;-83
2021/12/09 08:01:26;;;;;;;7.17;2.03;;;;;;;;;;5058760;28;20044;-84
2021/12/09 08:03:51;;;;;;;7.03;2.13;;;;;;;;;;5084477;28;20037;-83
2021/12/09 08:06:16;;;;;;;12.87;2.10;;;;;;;;;;5058610;28;20090;-83
2021/12/09 08:08:41;;;;;;;8.27;2.30;;;;;;;;;;5059081;28;20028;-83
2021/12/09 08:11:07;;;;;;;9.70;2.23;;;;;;;;;;5056766;28;20017;-83
2021/12/09 08:13:32;;;;;;;12.27;2.80;;;;;;;;;;5056990;28;20045;-83
2021/12/09 08:15:59;;;;;;;8.97;1.70;;;;;;;;;;5056392;28;20028;-83
2021/12/09 08:18:27;;;;;;;5.70;1.83;;;;;;;;;;5058940;28;20025;-83
2021/12/09 08:20:54;;;;;;;6.80;2.43;;;;;;;;;;5051210;28;20017;-84
2021/12/09 08:23:19;;;;;;;11.43;2.17;;;;;;;;;;5084293;28;20036;-83
2021/12/09 08:25:47;;;;;;;1.80;0.90;;;;;;;;;;5064942;28;20075;-83
2021/12/09 08:28:12;;;;;;;10.10;2.10;;;;;;;;;;5053619;28;20021;-83
2021/12/09 08:30:38;;;;;;;9.60;2.33;;;;;;;;;;5054045;28;20028;-83
2021/12/09 08:33:05;;;;;;;4.43;1.47;;;;;;;;;;5057464;28;20021;-83
2021/12/09 08:35:30;;;;;;;9.20;1.80;;;;;;;;;;5058435;28;20021;-83
2021/12/09 08:37:58;;;;;;;4.43;1.30;;;;;;;;;;5084453;28;20027;-83
2021/12/09 08:40:23;;;;;;;10.33;1.97;;;;;;;;;;5083591;28;20027;-83
2021/12/09 08:42:49;;;;;;;4.53;1.80;;;;;;;;;;5042843;28;20528;-83
2021/12/09 08:45:15;;;;;;;8.60;2.03;;;;;;;;;;5058724;28;20112;-83
2021/12/09 08:47:41;;;;;;;7.67;2.00;;;;;;;;;;5055825;28;20112;-83
2021/12/09 08:50:08;;;;;;;6.53;1.73;;;;;;;;;;5046752;28;20025;-83
2021/12/09 08:52:33;;;;;;;7.77;1.73;;;;;;;;;;5051139;28;20043;-83
2021/12/09 08:54:59;;;;;;;6.73;1.90;;;;;;;;;;5053878;28;20025;-82
2021/12/09 08:57:24;;;;;;;6.00;2.07;;;;;;;;;;5057008;28;20032;-83
2021/12/09 08:59:49;;;;;;;8.23;2.50;;;;;;;;;;5085721;28;20032;-83
2021/12/09 09:02:15;;;;;;;9.17;2.40;;;;;;;;;;5086645;28;20524;-83
2021/12/09 09:04:40;;;;;;;6.97;1.90;;;;;;;;;;5060656;28;20504;-83
2021/12/09 09:07:06;;;;;;;5.27;1.87;;;;;;;;;;5056724;28;20033;-82
2021/12/09 09:09:34;;;;;;;4.37;1.53;;;;;;;;;;5087349;28;20530;-83
2021/12/09 09:12:00;;;;;;;5.90;1.63;;;;;;;;;;5084318;28;20040;-83
2021/12/09 09:14:25;;;;;;;6.23;1.77;;;;;;;;;;5060769;28;20056;-83
2021/12/09 09:16:50;;;;;;;5.63;1.70;;;;;;;;;;5057868;28;20357;-83
2021/12/09 09:19:15;;;;;;;5.27;1.77;;;;;;;;;;5061179;28;20036;-83
2021/12/09 09:21:44;;;;;;;5.27;1.50;;;;;;;;;;5062365;28;20419;-83
2021/12/09 09:24:10;;;;;;;5.57;1.77;;;;;;;;;;5057949;28;20025;-83
2021/12/09 09:26:35;;;;;;;5.70;2.20;;;;;;;;;;5058569;28;20041;-83
2021/12/09 09:29:01;;;;;;;6.47;2.47;;;;;;;;;;5085842;28;20531;-83
2021/12/09 09:31:29;;;;;;;4.77;2.20;;;;;;;;;;5057229;28;20021;-83
2021/12/09 09:33:55;;;;;;;5.43;1.93;;;;;;;;;;5063434;28;20021;-83
2021/12/09 09:36:20;;;;;;;5.97;1.93;;;;;;;;;;5055590;28;20019;-83
2021/12/09 09:38:45;;;;;;;2.53;1.33;;;;;;;;;;5058870;28;20029;-83
2021/12/09 09:41:14;;;;;;;4.20;1.60;;;;;;;;;;5065266;28;20024;-83
2021/12/09 09:46:11;;;;;;;5.07;1.73;;;;;;;;;;5060505;28;20040;-83
2021/12/09 09:48:37;;;;;;;4.23;1.63;;;;;;;;;;5056622;28;20049;-83
2021/12/09 09:51:03;;;;;;;5.37;1.40;;;;;;;;;;5052733;28;20057;-84
2021/12/09 09:53:28;;;;;;;6.03;1.53;;;;;;;;;;5055668;28;20036;-84
2021/12/09 09:55:53;;;;;;;4.10;1.43;;;;;;;;;;5053789;28;20060;-83
2021/12/09 09:58:19;;;;;;;6.40;2.00;;;;;;;;;;5051894;28;20025;-84
2021/12/09 10:00:44;;;;;;;4.60;1.40;;;;;;;;;;5085915;28;20029;-84
2021/12/09 10:03:16;;;;;;;1.33;0.60;;;;;;;;;;5086686;28;20078;-84
2021/12/09 10:05:44;;;;;;;2.45;1.30;;;;;;;;;;5085951;28;20122;-85
2021/12/09 10:08:12;;;;;;;5.13;1.80;;;;;;;;;;5059561;28;20045;-84
2021/12/09 10:10:38;;;;;;;4.50;1.57;;;;;;;;;;5085932;28;20052;-83
2021/12/09 10:13:05;;;;;;;4.30;1.70;;;;;;;;;;5086387;28;20013;-84
2021/12/09 10:15:39;;;;;;;2.50;1.30;;;;;;;;;;5085905;28;20188;-85
2021/12/09 10:18:04;;;;;;;3.47;1.50;;;;;;;;;;5081381;28;20017;-88
2021/12/09 10:20:48;;;;;;;1.57;0.43;;;;;;;;;;5076906;28;20101;-88
2021/12/09 10:23:22;;;;;;;3.43;1.50;;;;;;;;;;5075294;28;20055;-89
2021/12/09 10:26:07;;;;;;;4.67;1.50;;;;;;;;;;5077749;28;20078;-89
2021/12/09 10:28:34;;;;;;;3.63;1.83;;;;;;;;;;5047846;28;20150;-88
2021/12/09 10:31:11;;;;;;;2.80;1.77;;;;;;;;;;5061180;28;20492;-88
2021/12/09 10:33:58;;;;;;;2.40;1.20;;;;;;;;;;5078954;28;20017;-88
2021/12/09 10:36:42;;;;;;;3.70;1.70;;;;;;;;;;5074886;28;20101;-88
2021/12/09 10:39:27;;;;;;;2.40;1.27;;;;;;;;;;5059908;28;20038;-88
2021/12/09 10:41:53;;;;;;;3.17;1.30;;;;;;;;;;5052616;28;20086;-88
2021/12/09 10:44:32;;;;;;;3.37;1.57;;;;;;;;;;5084249;28;20029;-88
2021/12/09 10:47:07;;;;;;;2.50;1.37;;;;;;;;;;5060407;28;20672;-88
2021/12/09 10:49:40;;;;;;;3.83;1.33;;;;;;;;;;5059368;28;20089;-88
2021/12/09 10:52:18;;;;;;;2.37;1.23;;;;;;;;;;5052985;28;20017;-88
2021/12/09 10:54:43;;;;;;;0.90;0.33;;;;;;;;;;5056237;28;20681;-88
2021/12/09 10:57:25;;;;;;;2.03;1.10;;;;;;;;;;5060398;28;20025;-88
2021/12/09 10:59:50;;;;;;;3.63;1.20;;;;;;;;;;5085925;28;20041;-89
2021/12/09 11:02:16;;;;;;;3.70;1.10;;;;;;;;;;5084521;28;20021;-88
2021/12/09 11:04:55;;;;;;;2.60;1.23;;;;;;;;;;5063534;28;20020;-87
2021/12/09 11:07:28;;;;;;;4.23;1.50;;;;;;;;;;5062660;28;20082;-88
2021/12/09 11:10:13;;;;;;;6.33;1.40;;;;;;;;;;5052794;28;20037;-88
2021/12/09 11:12:38;;;;;;;2.60;1.20;;;;;;;;;;5045225;28;20098;-88
2021/12/09 11:15:04;;;;;;;3.20;1.47;;;;;;;;;;5060317;28;20029;-88
2021/12/09 11:17:34;;;;;;;8.10;1.50;;;;;;;;;;5056025;28;20032;-88
2021/12/09 11:20:00;;;;;;;4.93;1.40;;;;;;;;;;5064535;28;20128;-88
2021/12/09 11:22:29;;;;;;;2.90;1.80;;;;;;;;;;5060736;28;20131;-88
2021/12/09 11:24:59;;;;;;;4.67;1.70;;;;;;;;;;5057447;28;20040;-88
2021/12/09 11:27:26;;;;;;;6.93;2.00;;;;;;;;;;5052345;28;21723;-88
2021/12/09 11:29:55;;;;;;;6.73;1.60;;;;;;;;;;5052170;28;20029;-88
2021/12/09 11:32:44;;;;;;;6.97;2.10;;;;;;;;;;5053045;28;20033;-88
2021/12/09 11:35:17;;;;;;;4.43;1.77;;;;;;;;;;5077349;28;20125;-88
2021/12/09 11:38:02;;;;;;;7.43;2.07;;;;;;;;;;5056789;28;20028;-88
2021/12/09 11:40:36;;;;;;;5.60;2.00;;;;;;;;;;5060316;28;20107;-88
2021/12/09 11:43:02;;;;;;;10.70;2.77;;;;;;;;;;5062961;28;20108;-88
2021/12/09 11:45:30;;;;;;;6.50;2.40;;;;;;;;;;5100453;28;20029;-88
2021/12/09 11:47:56;;;;;;;7.10;2.13;;;;;;;;;;5082319;28;20021;-89
2021/12/09 11:50:25;;;;;;;5.90;2.13;;;;;;;;;;5079108;28;20051;-88
2021/12/09 11:52:52;;;;;;;5.60;2.13;;;;;;;;;;5085413;28;20025;-89
2021/12/09 11:55:20;;;;;;;7.93;2.00;;;;;;;;;;5058891;28;20529;-89
2021/12/09 11:57:52;;;;;;;10.03;1.70;;;;;;;;;;5074963;28;20462;-88
2021/12/09 12:11:58;;;;;;;9.73;1.97;;;;;;;;;;5048414;28;20443;-89
2021/12/09 12:14:39;;;;;;;6.43;1.67;;;;;;;;;;5079005;28;20017;-88
2021/12/09 12:17:23;;;;;;;5.80;2.43;;;;;;;;;;5048745;28;20024;-89
2021/12/09 12:20:43;;;;;;;5.63;1.57;;;;;;;;;;5054986;28;20403;-89
2021/12/09 12:25:31;;;;;;;11.60;2.57;;;;;;;;;;5052691;28;20040;-89
2021/12/09 12:28:01;;;;;;;7.90;3.10;;;;;;;;;;5053976;28;20029;-89
2021/12/09 12:30:57;;;;;;;5.03;2.97;;;;;;;;;;5052431;28;20677;-89
2021/12/09 12:33:49;;;;;;;7.20;3.13;;;;;;;;;;5055296;28;20025;-88
2021/12/09 12:36:39;;;;;;;6.35;2.80;;;;;;;;;;5082688;28;20116;-88
2021/12/09 12:39:18;;;;;;;8.00;2.70;;;;;;;;;;5075389;28;20060;-88
2021/12/09 12:41:57;;;;;;;6.13;2.40;;;;;;;;;;5091057;28;20075;-88
2021/12/09 12:44:22;;;;;;;4.33;1.60;;;;;;;;;;5059022;28;20372;-88
2021/12/09 12:49:31;;;;;;;11.27;3.13;;;;;;;;;;5060447;28;20456;-87
2021/12/09 12:52:14;;;;;;;14.23;3.57;;;;;;;;;;5063158;28;20044;-87
2021/12/09 12:57:27;;;;;;;13.30;2.97;;;;;;;;;;5060973;28;20018;-88
2021/12/09 13:00:04;;;;;;;13.13;3.60;;;;;;;;;;5088494;28;20063;-87
2021/12/09 13:03:03;;;;;;;10.20;2.70;;;;;;;;;;5085057;28;20025;-88
2021/12/09 13:11:03;;;;;;;6.10;2.53;;;;;;;;;;5071469;28;20017;-88
2021/12/09 13:13:36;;;;;;;7.20;2.00;;;;;;;;;;5054298;28;20453;-87
2021/12/09 13:19:02;;;;;;;13.33;3.07;;;;;;;;;;5051283;28;20119;-88
2021/12/09 13:21:43;;;;;;;12.77;3.60;;;;;;;;;;5040279;28;20044;-88
2021/12/09 13:24:39;;;;;;;12.57;4.00;;;;;;;;;;5054144;28;20388;-88
2021/12/09 13:27:08;;;;;;;12.27;4.00;;;;;;;;;;5081857;28;20180;-87
2021/12/09 13:29:44;;;;;;;11.90;4.27;;;;;;;;;;5086470;28;20431;-87
2021/12/09 13:35:44;;;;;;;14.47;4.30;;;;;;;;;;5028741;28;20064;-87
2021/12/09 13:38:37;;;;;;;15.43;4.57;;;;;;;;;;5086306;28;20178;-86
2021/12/09 13:46:28;;;;;;;15.03;3.80;;;;;;;;;;5056317;28;20077;-87
2021/12/09 13:49:04;;;;;;;12.40;4.10;;;;;;;;;;5087070;28;20029;-87
2021/12/09 13:54:06;;;;;;;12.87;3.90;;;;;;;;;;5080865;28;20025;-87
2021/12/09 13:54:28;;;;;;;19.20;3.67;;;;;;;;;;5048635;28;20029;-87
2021/12/09 13:57:04;;;;;;;19.40;5.00;;;;;;;;;;5065522;28;20055;-87
2021/12/09 13:59:31;;;;;;;12.73;4.33;;;;;;;;;;5081488;28;20454;-87
2021/12/09 14:01:57;;;;;;;12.60;4.10;;;;;;;;;;5065039;28;20034;-87
2021/12/09 14:04:24;;;;;;;12.23;4.20;;;;;;;;;;5062453;28;20040;-87
2021/12/09 14:07:11;;;;;;;12.63;4.40;;;;;;;;;;5083254;28;20036;-87
2021/12/09 14:09:38;;;;;;;15.80;4.00;;;;;;;;;;5053687;28;20029;-87
2021/12/09 14:12:04;;;;;;;16.83;4.37;;;;;;;;;;5062574;28;20404;-87
2021/12/09 14:14:41;;;;;;;17.67;4.50;;;;;;;;;;5086436;28;20021;-87
2021/12/09 14:17:10;;;;;;;20.70;4.27;;;;;;;;;;5086172;28;20354;-87
2021/12/09 14:22:34;;;;;;;12.27;4.03;;;;;;;;;;5061718;28;20070;-87
2021/12/09 14:25:03;;;;;;;17.10;4.57;;;;;;;;;;5058207;28;20237;-86
2021/12/09 14:27:29;;;;;;;15.30;4.00;;;;;;;;;;5060160;28;20447;-86
2021/12/09 14:29:55;;;;;;;11.97;3.27;;;;;;;;;;5085887;28;20060;-85
2021/12/09 14:32:28;;;;;;;16.67;4.10;;;;;;;;;;5062465;28;20464;-85
2021/12/09 14:34:56;;;;;;;18.73;4.50;;;;;;;;;;5059626;28;20016;-84
2021/12/09 14:37:22;;;;;;;11.43;4.10;;;;;;;;;;5067191;28;20483;-85
2021/12/09 14:39:48;;;;;;;17.30;4.20;;;;;;;;;;5085686;28;20031;-86
2021/12/09 14:42:18;;;;;;;16.57;4.43;;;;;;;;;;5052831;28;20025;-85
2021/12/09 14:45:03;;;;;;;22.53;4.13;;;;;;;;;;5053721;28;20021;-84
2021/12/09 14:47:28;;;;;;;16.50;3.77;;;;;;;;;;5058194;28;20036;-85
2021/12/09 14:49:56;;;;;;;13.33;3.97;;;;;;;;;;5085591;28;20032;-85
2021/12/09 14:52:32;;;;;;;15.43;4.27;;;;;;;;;;5060761;28;20028;-85
2021/12/09 14:55:16;;;;;;;17.90;4.80;;;;;;;;;;5054471;28;20037;-85
2021/12/09 14:57:52;;;;;;;19.23;4.57;;;;;;;;;;5083736;28;20021;-85
2021/12/09 15:00:40;;;;;;;16.77;5.37;;;;;;;;;;5057713;28;20063;-84
2021/12/09 15:03:08;;;;;;;15.77;4.23;;;;;;;;;;5082956;28;20020;-85
2021/12/09 15:05:43;;;;;;;12.73;3.93;;;;;;;;;;5078853;28;20024;-85
2021/12/09 15:08:10;;;;;;;14.87;4.47;;;;;;;;;;5045354;28;20078;-85
2021/12/09 15:10:35;;;;;;;16.33;5.00;;;;;;;;;;5053439;28;20082;-85
2021/12/09 15:13:02;;;;;;;16.70;4.13;;;;;;;;;;5065497;28;20100;-85
2021/12/09 15:15:29;;;;;;;14.97;4.23;;;;;;;;;;5058933;28;20021;-85
2021/12/09 15:18:05;;;;;;;15.10;5.47;;;;;;;;;;5054053;28;20392;-85
2021/12/09 15:20:32;;;;;;;37.43;7.20;;;;;;;;;;5055470;28;20024;-84
2021/12/09 15:23:07;;;;;;;25.83;5.67;;;;;;;;;;5055616;28;20029;-85
2021/12/09 15:25:34;;;;;;;29.23;5.73;;;;;;;;;;5056019;28;20035;-84
2021/12/09 15:28:01;;;;;;;26.90;5.63;;;;;;;;;;5083918;28;20029;-84
2021/12/09 15:30:45;;;;;;;15.00;4.60;;;;;;;;;;5074306;28;20021;-85